Time;durP1;ratioP1;P1;durP2;ratioP2;P2;SDS_P1;SDS_P2;PMS_P1;PMS_P2;Temp;Humidity;BMP_temperature;BMP_pressure;BME280_temperature;BME280_humidity;BME280_pressure;Samples;Min_cycle;Max_cycle;Signal;HPM_P1;HPM_P2
2021/09/09 00:00:59;;;;;;;;;;;;;;;21.72;54.97;101289.69;2091578;28;812;-59
2021/09/09 00:01:59;;;;;;;;;;;;;;;21.73;55.48;101288.78;2091487;28;747;-59
2021/09/09 00:02:59;;;;;;;;;;;;;;;21.74;55.01;101289.63;2091505;28;909;-60
2021/09/09 00:04:00;;;;;;;;;;;;;;;21.75;55.28;101288.72;2091474;28;834;-59
2021/09/09 00:05:00;;;;;;;;;;;;;;;21.75;55.01;101292.31;2091498;28;942;-58
2021/09/09 00:06:00;;;;;;;;;;;;;;;21.74;54.84;101289.63;2091457;28;905;-58
2021/09/09 00:07:01;;;;;;;;;;;;;;;21.72;55.15;101295.09;2091384;28;985;-59
2021/09/09 00:08:01;;;;;;;;;;;;;;;21.73;55.19;101294.16;2091429;28;902;-59
2021/09/09 00:09:01;;;;;;;;;;;;;;;21.74;54.72;101292.34;2091348;28;1389;-59
2021/09/09 00:10:02;;;;;;;;;;;;;;;21.74;54.91;101287.84;2091211;28;1917;-59
2021/09/09 00:11:02;;;;;;;;;;;;;;;21.72;55.30;101287.00;2091462;28;1154;-59
2021/09/09 00:12:03;;;;;;;;;;;;;;;21.73;55.17;101286.06;2091371;28;965;-58
2021/09/09 00:13:03;;;;;;;;;;;;;;;21.71;55.51;101287.03;2091382;28;1059;-58
2021/09/09 00:14:04;;;;;;;;;;;;;;;21.72;54.81;101286.09;2091248;28;1448;-59
2021/09/09 00:15:04;;;;;;;;;;;;;;;21.74;55.41;101281.53;2091356;28;1036;-58
2021/09/09 00:16:05;;;;;;;;;;;;;;;21.72;55.21;101284.31;2090745;28;1188;-59
2021/09/09 00:17:05;;;;;;;;;;;;;;;21.72;54.86;101289.69;2090966;28;799;-58
2021/09/09 00:18:05;;;;;;;;;;;;;;;21.71;54.66;101289.72;2091322;28;852;-58
2021/09/09 00:19:06;;;;;;;;;;;;;;;21.72;54.55;101292.41;2091524;28;1031;-58
2021/09/09 00:20:07;;;;;;;;;;;;;;;21.73;55.28;101291.47;2091372;28;965;-59
2021/09/09 00:21:07;;;;;;;;;;;;;;;21.71;55.22;101289.72;2091455;28;818;-59
2021/09/09 00:22:07;;;;;;;;;;;;;;;21.71;55.09;101287.03;2091429;28;1098;-58
2021/09/09 00:23:08;;;;;;;;;;;;;;;21.71;54.79;101296.03;2091427;28;811;-58
2021/09/09 00:24:08;;;;;;;;;;;;;;;21.71;54.84;101290.63;2091398;28;784;-58
2021/09/09 00:25:08;;;;;;;;;;;;;;;21.72;55.50;101286.09;2091447;28;851;-58
2021/09/09 00:26:09;;;;;;;;;;;;;;;21.70;55.30;101288.88;2091055;28;1023;-58
2021/09/09 00:27:09;;;;;;;;;;;;;;;21.71;55.09;101290.63;2091429;28;766;-58
2021/09/09 00:28:09;;;;;;;;;;;;;;;21.72;54.76;101287.00;2091384;28;938;-58
2021/09/09 00:29:09;;;;;;;;;;;;;;;21.71;55.14;101285.25;2091211;28;778;-58
2021/09/09 00:30:10;;;;;;;;;;;;;;;21.71;54.57;101281.66;2091185;28;1906;-58
2021/09/09 00:31:10;;;;;;;;;;;;;;;21.70;54.41;101280.78;2091403;28;1008;-59
2021/09/09 00:32:10;;;;;;;;;;;;;;;21.71;54.38;101287.03;2090733;28;1379;-59
2021/09/09 00:33:10;;;;;;;;;;;;;;;21.69;55.48;101281.72;2090830;28;835;-58
2021/09/09 00:34:10;;;;;;;;;;;;;;;21.70;55.07;101283.47;2090936;28;771;-58
2021/09/09 00:35:11;;;;;;;;;;;;;;;21.69;55.36;101284.41;2091409;28;750;-58
2021/09/09 00:36:11;;;;;;;;;;;;;;;21.71;54.83;101281.66;2091297;28;815;-58
2021/09/09 00:37:11;;;;;;;;;;;;;;;21.70;55.32;101287.97;2091356;28;961;-58
2021/09/09 00:38:11;;;;;;;;;;;;;;;21.68;55.25;101282.63;2091340;28;786;-59
2021/09/09 00:39:11;;;;;;;;;;;;;;;21.71;54.66;101289.72;2091281;28;1028;-58
2021/09/09 00:40:12;;;;;;;;;;;;;;;21.71;54.41;101279.84;2091202;28;1185;-58
2021/09/09 00:41:12;;;;;;;;;;;;;;;21.70;55.13;101272.69;2091250;28;1282;-58
2021/09/09 00:42:12;;;;;;;;;;;;;;;21.70;55.33;101278.06;2091317;28;981;-58
2021/09/09 00:43:12;;;;;;;;;;;;;;;21.69;54.61;101279.00;2091359;28;929;-58
2021/09/09 00:44:23;;;;;;;;;;;;;;;21.69;54.94;101278.09;2091259;28;779;-58
2021/09/09 00:45:23;;;;;;;;;;;;;;;21.70;55.28;101283.47;2091374;28;900;-58
2021/09/09 00:46:24;;;;;;;;;;;;;;;21.67;54.68;101275.47;2091228;28;1005;-58
2021/09/09 00:47:24;;;;;;;;;;;;;;;21.68;55.42;101279.94;2091329;28;850;-59
2021/09/09 00:48:24;;;;;;;;;;;;;;;21.69;54.73;101280.81;2091186;28;1304;-58
2021/09/09 00:49:24;;;;;;;;;;;;;;;21.68;54.77;101282.63;2091304;28;1975;-58
2021/09/09 00:50:24;;;;;;;;;;;;;;;21.69;55.01;101276.31;2091317;28;1040;-58
2021/09/09 00:51:25;;;;;;;;;;;;;;;21.69;55.44;101281.72;2091276;28;906;-59
2021/09/09 00:52:25;;;;;;;;;;;;;;;21.69;54.98;101283.50;2091229;28;996;-58
2021/09/09 00:53:25;;;;;;;;;;;;;;;21.68;54.98;101285.34;2091416;28;1129;-58
2021/09/09 00:54:26;;;;;;;;;;;;;;;21.67;55.13;101282.66;2091116;28;989;-58
2021/09/09 00:55:26;;;;;;;;;;;;;;;21.66;55.45;101279.09;2091236;28;776;-59
2021/09/09 00:56:26;;;;;;;;;;;;;;;21.67;55.34;101280.88;2091243;28;799;-59
2021/09/09 00:57:27;;;;;;;;;;;;;;;21.67;55.48;101280.88;2091151;28;847;-59
2021/09/09 00:58:27;;;;;;;;;;;;;;;21.66;55.23;101276.41;2091138;28;823;-59
2021/09/09 00:59:27;;;;;;;;;;;;;;;21.66;55.49;101279.09;2091288;28;830;-59
2021/09/09 01:00:28;;;;;;;;;;;;;;;21.67;55.23;101272.78;2091299;28;1056;-60
2021/09/09 01:01:28;;;;;;;;;;;;;;;21.67;55.41;101278.16;2091247;28;1233;-58
2021/09/09 01:02:28;;;;;;;;;;;;;;;21.67;54.70;101286.25;2091249;28;752;-59
2021/09/09 01:03:28;;;;;;;;;;;;;;;21.67;54.70;101278.16;2091162;28;921;-59
2021/09/09 01:04:28;;;;;;;;;;;;;;;21.66;55.43;101279.09;2091235;28;1055;-59
2021/09/09 01:05:29;;;;;;;;;;;;;;;21.67;55.39;101285.38;2091226;28;775;-60
2021/09/09 01:06:29;;;;;;;;;;;;;;;21.66;55.37;101279.09;2091070;28;791;-58
2021/09/09 01:07:29;;;;;;;;;;;;;;;21.66;55.12;101280.91;2091221;28;993;-58
2021/09/09 01:08:30;;;;;;;;;;;;;;;21.66;54.75;101281.81;2092036;28;1221;-58
2021/09/09 01:09:30;;;;;;;;;;;;;;;21.69;54.94;101275.41;2092447;28;1918;-59
2021/09/09 01:10:30;;;;;;;;;;;;;;;21.69;55.39;101278.09;2092903;28;803;-56
2021/09/09 01:11:31;;;;;;;;;;;;;;;21.70;55.30;101277.19;2092629;28;1415;-57
2021/09/09 01:12:31;;;;;;;;;;;;;;;21.70;54.74;101278.06;2092690;28;1086;-57
2021/09/09 01:13:31;;;;;;;;;;;;;;;21.70;55.39;101278.06;2092750;28;966;-57
2021/09/09 01:14:31;;;;;;;;;;;;;;;21.69;55.01;101278.09;2092767;28;842;-58
2021/09/09 01:15:36;;;;;;;;;;;;;;;21.70;54.75;101277.19;2092814;28;993;-57
2021/09/09 01:16:37;;;;;;;;;;;;;;;21.68;54.54;101279.94;2092722;28;838;-57
2021/09/09 01:17:37;;;;;;;;;;;;;;;21.68;55.22;101285.34;2092373;28;867;-56
2021/09/09 01:18:37;;;;;;;;;;;;;;;21.67;54.81;101279.97;2092794;28;760;-56
2021/09/09 01:19:37;;;;;;;;;;;;;;;21.68;55.37;101279.03;2092726;28;764;-56
2021/09/09 01:20:38;;;;;;;;;;;;;;;21.67;54.80;101282.66;2092797;28;985;-56
2021/09/09 01:21:39;;;;;;;;;;;;;;;21.65;55.49;101282.72;2092752;28;1068;-56
2021/09/09 01:22:39;;;;;;;;;;;;;;;21.67;54.89;101277.28;2092462;28;815;-58
2021/09/09 01:23:41;;;;;;;;;;;;;;;21.67;55.38;101283.56;2092623;28;997;-56
2021/09/09 01:24:41;;;;;;;;;;;;;;;21.63;55.72;101273.81;2092726;28;873;-56
2021/09/09 01:25:41;;;;;;;;;;;;;;;21.65;55.45;101280.03;2092524;28;981;-56
2021/09/09 01:26:52;;;;;;;;;;;;;;;21.64;55.39;101274.66;2092657;28;918;-56
2021/09/09 01:27:52;;;;;;;;;;;;;;;21.64;54.95;101280.06;2092618;28;803;-56
2021/09/09 01:28:54;;;;;;;;;;;;;;;21.66;54.96;101272.81;2092502;28;1487;-56
2021/09/09 01:29:54;;;;;;;;;;;;;;;21.66;55.05;101275.50;2092530;28;1965;-56
2021/09/09 01:30:54;;;;;;;;;;;;;;;21.65;54.80;101280.03;2092603;28;990;-56
2021/09/09 01:31:55;;;;;;;;;;;;;;;21.62;55.27;101278.28;2092699;28;1098;-56
2021/09/09 01:32:55;;;;;;;;;;;;;;;21.64;55.42;101274.66;2092643;28;827;-56
2021/09/09 01:33:56;;;;;;;;;;;;;;;21.64;55.58;101277.38;2092205;28;859;-56
2021/09/09 01:34:56;;;;;;;;;;;;;;;21.62;55.12;101274.72;2092681;28;1114;-56
2021/09/09 01:35:56;;;;;;;;;;;;;;;21.62;55.22;101266.66;2092609;28;1036;-56
2021/09/09 01:36:56;;;;;;;;;;;;;;;21.60;55.66;101280.13;2092634;28;993;-56
2021/09/09 01:37:57;;;;;;;;;;;;;;;21.62;54.95;101270.22;2092541;28;1044;-56
2021/09/09 01:38:57;;;;;;;;;;;;;;;21.63;55.25;101249.53;2092455;28;768;-56
2021/09/09 01:39:57;;;;;;;;;;;;;;;21.63;55.14;101257.63;2092509;28;1195;-56
2021/09/09 01:40:58;;;;;;;;;;;;;;;21.64;54.96;101263.88;2092536;28;1197;-56
2021/09/09 01:41:59;;;;;;;;;;;;;;;21.62;55.22;101259.44;2092345;28;854;-57
2021/09/09 01:43:00;;;;;;;;;;;;;;;21.64;55.57;101261.19;2092632;28;867;-56
2021/09/09 01:44:00;;;;;;;;;;;;;;;21.62;56.06;101263.94;2092488;28;789;-56
2021/09/09 01:45:00;;;;;;;;;;;;;;;21.64;55.78;101264.78;2092130;28;1028;-56
2021/09/09 01:46:00;;;;;;;;;;;;;;;21.63;55.51;101265.72;2092509;28;977;-56
2021/09/09 01:47:00;;;;;;;;;;;;;;;21.64;55.46;101269.28;2092574;28;827;-56
2021/09/09 01:48:00;;;;;;;;;;;;;;;21.62;55.49;101258.56;2092376;28;850;-56
2021/09/09 01:49:01;;;;;;;;;;;;;;;21.62;54.89;101264.81;2092661;28;706;-57
2021/09/09 01:50:01;;;;;;;;;;;;;;;21.62;55.67;101259.44;2092380;28;1894;-57
2021/09/09 01:51:01;;;;;;;;;;;;;;;21.54;54.87;101250.66;2083586;28;894;-57
2021/09/09 01:52:01;;;;;;;;;;;;;;;21.60;55.74;101261.25;2083652;28;1314;-56
2021/09/09 01:53:02;;;;;;;;;;;;;;;21.62;55.35;101255.88;2092386;28;766;-57
2021/09/09 01:54:02;;;;;;;;;;;;;;;21.61;55.75;101262.16;2092403;28;972;-57
2021/09/09 01:55:02;;;;;;;;;;;;;;;21.61;54.84;101257.63;2092501;28;818;-56
2021/09/09 01:56:02;;;;;;;;;;;;;;;21.63;54.93;101260.31;2092404;28;981;-57
2021/09/09 01:57:03;;;;;;;;;;;;;;;21.63;55.32;101263.03;2092323;28;917;-57
2021/09/09 01:58:03;;;;;;;;;;;;;;;21.61;54.93;101262.16;2091407;28;2225;-57
2021/09/09 01:59:03;;;;;;;;;;;;;;;21.61;55.67;101257.63;2092266;28;882;-57
2021/09/09 02:00:04;;;;;;;;;;;;;;;21.61;55.46;101256.75;2092369;28;1067;-57
2021/09/09 02:01:04;;;;;;;;;;;;;;;21.60;55.79;101255.88;2092431;28;854;-57
2021/09/09 02:02:04;;;;;;;;;;;;;;;21.61;55.06;101257.63;2092237;28;989;-57
2021/09/09 02:03:05;;;;;;;;;;;;;;;21.61;55.53;101262.16;2092473;28;768;-57
2021/09/09 02:04:05;;;;;;;;;;;;;;;21.60;55.65;101260.38;2092198;28;1095;-57
2021/09/09 02:05:05;;;;;;;;;;;;;;;21.61;55.83;101256.75;2092176;28;1040;-57
2021/09/09 02:06:06;;;;;;;;;;;;;;;21.60;55.04;101258.56;2092345;28;787;-57
2021/09/09 02:07:06;;;;;;;;;;;;;;;21.59;55.29;101253.22;2092402;28;862;-58
2021/09/09 02:08:06;;;;;;;;;;;;;;;21.61;55.29;101260.31;2092245;28;1036;-57
2021/09/09 02:09:06;;;;;;;;;;;;;;;21.59;55.55;101253.22;2092234;28;1157;-58
2021/09/09 02:10:08;;;;;;;;;;;;;;;21.61;55.60;101251.38;2092194;28;1961;-57
2021/09/09 02:11:08;;;;;;;;;;;;;;;21.62;55.52;101255.88;2092432;28;1052;-57
2021/09/09 02:12:08;;;;;;;;;;;;;;;21.61;54.91;101256.75;2092220;28;859;-57
2021/09/09 02:13:08;;;;;;;;;;;;;;;21.59;55.47;101253.22;2092379;28;712;-57
2021/09/09 02:14:08;;;;;;;;;;;;;;;21.61;55.00;101254.06;2092362;28;758;-57
2021/09/09 02:15:09;;;;;;;;;;;;;;;21.61;55.02;101252.22;2092338;28;870;-57
2021/09/09 02:16:09;;;;;;;;;;;;;;;21.60;55.05;101242.38;2092193;28;1044;-58
2021/09/09 02:17:10;;;;;;;;;;;;;;;21.60;55.55;101247.78;2092423;28;780;-57
2021/09/09 02:18:10;;;;;;;;;;;;;;;21.62;55.58;101250.47;2083326;28;743;-57
2021/09/09 02:19:10;;;;;;;;;;;;;;;21.61;55.43;101245.97;2083083;28;1028;-56
2021/09/09 02:20:10;;;;;;;;;;;;;;;21.61;55.48;101249.53;2092130;28;827;-57
2021/09/09 02:21:11;;;;;;;;;;;;;;;21.62;54.93;101247.78;2092227;28;775;-57
2021/09/09 02:22:11;;;;;;;;;;;;;;;21.62;55.80;101247.78;2092180;28;846;-57
2021/09/09 02:23:11;;;;;;;;;;;;;;;21.61;54.96;101251.38;2092240;28;759;-57
2021/09/09 02:24:11;;;;;;;;;;;;;;;21.61;55.58;101243.28;2092072;28;1012;-57
2021/09/09 02:25:12;;;;;;;;;;;;;;;21.62;55.45;101243.25;2092278;28;870;-58
2021/09/09 02:26:12;;;;;;;;;;;;;;;21.60;55.16;101245.06;2092116;28;831;-57
2021/09/09 02:27:13;;;;;;;;;;;;;;;21.60;54.95;101238.81;2092220;28;850;-58
2021/09/09 02:28:13;;;;;;;;;;;;;;;21.61;55.23;101240.59;2092156;28;1750;-57
2021/09/09 02:29:13;;;;;;;;;;;;;;;21.60;55.15;101244.22;2092159;28;803;-57
2021/09/09 02:30:14;;;;;;;;;;;;;;;21.62;54.99;101237.00;2092121;28;1885;-57
2021/09/09 02:31:14;;;;;;;;;;;;;;;21.61;55.57;101240.59;2092237;28;842;-57
2021/09/09 02:32:14;;;;;;;;;;;;;;;21.61;55.09;101241.44;2092143;28;859;-57
2021/09/09 02:33:14;;;;;;;;;;;;;;;21.62;55.24;101242.38;2092188;28;1184;-57
2021/09/09 02:34:14;;;;;;;;;;;;;;;21.62;54.66;101243.25;2091919;28;1002;-58
2021/09/09 02:35:14;;;;;;;;;;;;;;;21.61;55.50;101237.88;2092050;28;859;-57
2021/09/09 02:36:15;;;;;;;;;;;;;;;21.64;54.82;101245.00;2092099;28;1041;-57
2021/09/09 02:37:15;;;;;;;;;;;;;;;21.62;55.01;101247.78;2092152;28;917;-57
2021/09/09 02:38:15;;;;;;;;;;;;;;;21.62;54.91;101248.63;2092123;28;1012;-57
2021/09/09 02:39:15;;;;;;;;;;;;;;;21.62;55.08;101247.78;2092181;28;779;-57
2021/09/09 02:40:15;;;;;;;;;;;;;;;21.62;55.24;101253.16;2091790;28;1206;-58
2021/09/09 02:41:16;;;;;;;;;;;;;;;21.64;55.25;101253.09;2092075;28;1215;-57
2021/09/09 02:42:16;;;;;;;;;;;;;;;21.61;54.96;101245.97;2092089;28;838;-57
2021/09/09 02:43:16;;;;;;;;;;;;;;;21.62;54.76;101243.25;2092136;28;874;-58
2021/09/09 02:44:16;;;;;;;;;;;;;;;21.61;55.28;101241.44;2092078;28;1012;-57
2021/09/09 02:45:16;;;;;;;;;;;;;;;21.63;55.27;101238.75;2092082;28;988;-57
2021/09/09 02:46:16;;;;;;;;;;;;;;;21.64;54.91;101245.91;2092109;28;996;-57
2021/09/09 02:47:17;;;;;;;;;;;;;;;21.62;54.83;101245.09;2091996;28;830;-58
2021/09/09 02:48:17;;;;;;;;;;;;;;;21.63;54.51;101244.16;2091712;28;1260;-56
2021/09/09 02:49:17;;;;;;;;;;;;;;;21.63;54.58;101246.84;2092055;28;925;-57
2021/09/09 02:50:17;;;;;;;;;;;;;;;21.62;55.44;101250.47;2091959;28;1893;-57
2021/09/09 02:51:17;;;;;;;;;;;;;;;21.63;55.33;101241.44;2092084;28;747;-58
2021/09/09 02:52:17;;;;;;;;;;;;;;;21.65;54.82;101244.09;2091975;28;863;-58
2021/09/09 02:53:17;;;;;;;;;;;;;;;21.61;55.02;101243.28;2091674;28;795;-57
2021/09/09 02:54:18;;;;;;;;;;;;;;;21.63;54.77;101241.44;2091917;28;919;-57
2021/09/09 02:55:18;;;;;;;;;;;;;;;21.64;55.07;101232.44;2092029;28;977;-57
2021/09/09 02:56:18;;;;;;;;;;;;;;;21.64;54.49;101235.13;2091688;28;868;-57
2021/09/09 02:57:18;;;;;;;;;;;;;;;21.62;55.35;101237.00;2091999;28;1099;-57
2021/09/09 02:58:18;;;;;;;;;;;;;;;21.62;54.54;101237.00;2091917;28;1036;-57
2021/09/09 02:59:18;;;;;;;;;;;;;;;21.62;54.79;101237.84;2091930;28;984;-57
2021/09/09 03:00:19;;;;;;;;;;;;;;;21.66;54.35;101237.75;2091895;28;847;-57
2021/09/09 03:01:19;;;;;;;;;;;;;;;21.64;54.42;101234.22;2092044;28;878;-57
2021/09/09 03:02:19;;;;;;;;;;;;;;;21.64;55.03;101236.94;2091762;28;977;-57
2021/09/09 03:03:21;;;;;;;;;;;;;;;21.61;54.85;101241.44;2092009;28;976;-57
2021/09/09 03:04:21;;;;;;;;;;;;;;;21.61;54.77;101236.06;2091833;28;803;-57
2021/09/09 03:05:21;;;;;;;;;;;;;;;21.62;55.23;101235.16;2091692;28;1128;-58
2021/09/09 03:06:21;;;;;;;;;;;;;;;21.64;54.51;101235.13;2091922;28;1039;-57
2021/09/09 03:07:22;;;;;;;;;;;;;;;21.64;54.84;101243.22;2091965;28;671;-57
2021/09/09 03:08:22;;;;;;;;;;;;;;;21.62;54.97;101240.56;2091695;28;1184;-57
2021/09/09 03:09:22;;;;;;;;;;;;;;;21.62;55.03;101237.84;2091945;28;1039;-57
2021/09/09 03:10:22;;;;;;;;;;;;;;;21.64;54.35;101229.75;2091644;28;1973;-57
2021/09/09 03:11:23;;;;;;;;;;;;;;;21.64;55.22;101220.75;2091875;28;767;-57
2021/09/09 03:12:23;;;;;;;;;;;;;;;21.64;55.34;101216.25;2091912;28;993;-58
2021/09/09 03:13:23;;;;;;;;;;;;;;;21.62;55.04;101210.91;2091881;28;779;-57
2021/09/09 03:14:23;;;;;;;;;;;;;;;21.62;54.75;101202.81;2091800;28;909;-58
2021/09/09 03:15:23;;;;;;;;;;;;;;;21.63;55.04;101206.41;2091767;28;992;-57
2021/09/09 03:16:23;;;;;;;;;;;;;;;21.65;54.83;101203.66;2091595;28;1196;-58
2021/09/09 03:17:23;;;;;;;;;;;;;;;21.65;54.54;101206.34;2091842;28;846;-57
2021/09/09 03:18:24;;;;;;;;;;;;;;;21.66;55.27;101209.00;2091762;28;973;-57
2021/09/09 03:19:24;;;;;;;;;;;;;;;21.65;54.66;101207.25;2091843;28;797;-57
2021/09/09 03:20:24;;;;;;;;;;;;;;;21.64;55.35;101208.16;2091789;28;1028;-57
2021/09/09 03:21:24;;;;;;;;;;;;;;;21.66;54.46;101213.50;2091741;28;1040;-58
2021/09/09 03:22:24;;;;;;;;;;;;;;;21.66;54.58;101209.00;2091789;28;838;-58
2021/09/09 03:23:25;;;;;;;;;;;;;;;21.64;54.62;101210.88;2091682;28;936;-58
2021/09/09 03:24:25;;;;;;;;;;;;;;;21.65;54.97;101214.44;2091656;28;1301;-57
2021/09/09 03:25:25;;;;;;;;;;;;;;;21.64;54.84;101215.38;2091823;28;996;-57
2021/09/09 03:26:25;;;;;;;;;;;;;;;21.64;54.70;101208.16;2091682;28;1028;-57
2021/09/09 03:27:25;;;;;;;;;;;;;;;21.64;55.44;101202.78;2091767;28;827;-58
2021/09/09 03:28:25;;;;;;;;;;;;;;;21.64;54.49;101212.66;2091745;28;856;-57
2021/09/09 03:29:25;;;;;;;;;;;;;;;21.62;54.92;101210.03;2091423;28;862;-57
2021/09/09 03:30:26;;;;;;;;;;;;;;;21.63;55.24;101198.31;2091224;28;1952;-57
2021/09/09 03:31:26;;;;;;;;;;;;;;;21.63;55.48;101198.31;2091279;28;802;-58
2021/09/09 03:32:26;;;;;;;;;;;;;;;21.64;55.21;101208.16;2091629;28;898;-58
2021/09/09 03:33:27;;;;;;;;;;;;;;;21.62;55.60;101199.25;2091793;28;826;-57
2021/09/09 03:34:27;;;;;;;;;;;;;;;21.60;55.61;101203.78;2091677;28;787;-57
2021/09/09 03:35:27;;;;;;;;;;;;;;;21.60;55.21;101207.34;2091732;28;906;-58
2021/09/09 03:36:27;;;;;;;;;;;;;;;21.62;54.96;101210.91;2082771;28;1005;-58
2021/09/09 03:37:27;;;;;;;;;;;;;;;21.62;55.36;101202.81;2074652;28;1521;-57
2021/09/09 03:38:27;;;;;;;;;;;;;;;21.63;55.07;101198.31;2082802;28;784;-58
2021/09/09 03:39:28;;;;;;;;;;;;;;;21.62;55.15;101201.94;2091543;28;941;-57
2021/09/09 03:40:28;;;;;;;;;;;;;;;21.60;55.01;101196.56;2091730;28;1218;-58
2021/09/09 03:41:28;;;;;;;;;;;;;;;21.62;54.81;101199.25;2091710;28;783;-57
2021/09/09 03:42:28;;;;;;;;;;;;;;;21.58;55.85;101198.41;2091707;28;847;-58
2021/09/09 03:43:28;;;;;;;;;;;;;;;21.60;55.04;101196.56;2091649;28;858;-57
2021/09/09 03:44:28;;;;;;;;;;;;;;;21.59;54.85;101200.19;2091632;28;981;-58
2021/09/09 03:45:29;;;;;;;;;;;;;;;21.62;55.06;101199.25;2091463;28;859;-57
2021/09/09 03:46:29;;;;;;;;;;;;;;;21.62;54.89;101204.63;2091576;28;1025;-58
2021/09/09 03:47:29;;;;;;;;;;;;;;;21.61;55.57;101208.22;2091525;28;1040;-58
2021/09/09 03:48:29;;;;;;;;;;;;;;;21.63;55.36;101198.31;2091392;28;984;-57
2021/09/09 03:49:29;;;;;;;;;;;;;;;21.64;55.34;101201.88;2091497;28;1971;-57
2021/09/09 03:50:30;;;;;;;;;;;;;;;21.63;54.82;101198.31;2091652;28;977;-58
2021/09/09 03:51:30;;;;;;;;;;;;;;;21.63;55.03;101198.31;2091601;28;779;-58
2021/09/09 03:52:30;;;;;;;;;;;;;;;21.61;54.86;101197.44;2091555;28;973;-57
2021/09/09 03:53:30;;;;;;;;;;;;;;;21.61;54.83;101194.75;2091545;28;815;-58
2021/09/09 03:54:30;;;;;;;;;;;;;;;21.61;55.23;101189.38;2091602;28;1001;-57
2021/09/09 03:55:30;;;;;;;;;;;;;;;21.58;54.87;101189.47;2091321;28;997;-57
2021/09/09 03:56:31;;;;;;;;;;;;;;;21.60;55.06;101185.78;2091405;28;969;-58
2021/09/09 03:57:31;;;;;;;;;;;;;;;21.61;55.15;101187.53;2091472;28;1051;-58
2021/09/09 03:58:31;;;;;;;;;;;;;;;21.62;55.50;101191.16;2091534;28;855;-58
2021/09/09 03:59:31;;;;;;;;;;;;;;;21.59;55.17;101188.53;2091449;28;1292;-59
2021/09/09 04:00:31;;;;;;;;;;;;;;;21.59;55.45;101188.53;2091558;28;767;-57
2021/09/09 04:01:32;;;;;;;;;;;;;;;21.61;55.27;101189.38;2091422;28;807;-58
2021/09/09 04:02:32;;;;;;;;;;;;;;;21.66;54.78;101189.22;2082568;28;1012;-58
2021/09/09 04:03:32;;;;;;;;;;;;;;;22.17;53.51;101184.84;2082539;28;1159;-57
2021/09/09 04:04:32;;;;;;;;;;;;;;;22.32;52.92;101173.53;2091201;28;876;-58
2021/09/09 04:05:32;;;;;;;;;;;;;;;22.41;52.49;101180.41;2091502;28;993;-58
2021/09/09 04:06:32;;;;;;;;;;;;;;;22.48;52.38;101176.56;2091465;28;922;-58
2021/09/09 04:07:33;;;;;;;;;;;;;;;22.58;52.10;101170.84;2091462;28;890;-58
2021/09/09 04:08:33;;;;;;;;;;;;;;;22.61;51.83;101168.03;2091333;28;1217;-59
2021/09/09 04:09:34;;;;;;;;;;;;;;;22.65;52.16;101167.84;2082491;28;1910;-58
2021/09/09 04:10:35;;;;;;;;;;;;;;;22.70;51.68;101161.41;2074584;28;891;-58
2021/09/09 04:11:36;;;;;;;;;;;;;;;22.72;51.83;101162.22;2082733;28;821;-58
2021/09/09 04:12:36;;;;;;;;;;;;;;;22.76;51.98;101169.28;2091415;28;838;-57
2021/09/09 04:13:37;;;;;;;;;;;;;;;22.81;51.36;101159.19;2091461;28;824;-58
2021/09/09 04:14:37;;;;;;;;;;;;;;;22.84;51.59;101166.28;2082464;28;1542;-58
2021/09/09 04:15:39;;;;;;;;;;;;;;;22.85;51.68;101159.94;2082634;28;685;-58
2021/09/09 04:16:39;;;;;;;;;;;;;;;22.88;50.86;101155.31;2091533;28;866;-58
2021/09/09 04:17:39;;;;;;;;;;;;;;;22.89;50.85;101159.78;2091102;28;787;-58
2021/09/09 04:18:39;;;;;;;;;;;;;;;22.93;51.07;101156.03;2091439;28;989;-58
2021/09/09 04:19:39;;;;;;;;;;;;;;;22.93;51.27;101158.72;2091397;28;767;-58
2021/09/09 04:20:40;;;;;;;;;;;;;;;22.95;51.27;101158.66;2091157;28;854;-58
2021/09/09 04:21:40;;;;;;;;;;;;;;;22.97;50.58;101158.56;2091405;28;858;-58
2021/09/09 04:22:40;;;;;;;;;;;;;;;23.00;50.67;101158.47;2091428;28;906;-58
2021/09/09 04:23:40;;;;;;;;;;;;;;;22.99;50.68;101154.00;2091358;28;981;-58
2021/09/09 04:24:40;;;;;;;;;;;;;;;23.01;51.03;101155.72;2091455;28;1005;-59
2021/09/09 04:25:41;;;;;;;;;;;;;;;22.99;51.19;101157.59;2091394;28;787;-58
2021/09/09 04:26:41;;;;;;;;;;;;;;;23.00;50.57;101151.25;2090996;28;1040;-59
2021/09/09 04:27:41;;;;;;;;;;;;;;;23.04;50.35;101152.00;2091362;28;993;-58
2021/09/09 04:28:41;;;;;;;;;;;;;;;23.03;50.78;101152.94;2091425;28;771;-58
2021/09/09 04:29:41;;;;;;;;;;;;;;;23.02;50.27;101153.88;2091308;28;1886;-58
2021/09/09 04:30:41;;;;;;;;;;;;;;;23.01;50.75;101147.59;2091227;28;875;-58
2021/09/09 04:31:42;;;;;;;;;;;;;;;23.02;51.30;101151.16;2091357;28;772;-58
2021/09/09 04:32:42;;;;;;;;;;;;;;;23.03;50.49;101147.53;2091357;28;953;-58
2021/09/09 04:33:42;;;;;;;;;;;;;;;23.03;50.63;101144.84;2091330;28;1400;-58
2021/09/09 04:34:42;;;;;;;;;;;;;;;23.04;50.80;101143.88;2091432;28;1068;-58
2021/09/09 04:35:43;;;;;;;;;;;;;;;23.03;50.75;101148.44;2091354;28;1007;-58
2021/09/09 04:36:43;;;;;;;;;;;;;;;23.04;51.22;101141.19;2091230;28;1028;-58
2021/09/09 04:37:43;;;;;;;;;;;;;;;23.04;51.33;101146.59;2091402;28;1528;-59
2021/09/09 04:38:43;;;;;;;;;;;;;;;23.05;51.03;101151.06;2091360;28;922;-58
2021/09/09 04:39:43;;;;;;;;;;;;;;;23.05;50.83;101148.34;2091311;28;767;-59
2021/09/09 04:40:44;;;;;;;;;;;;;;;23.04;51.02;101149.28;2091297;28;1396;-59
2021/09/09 04:41:44;;;;;;;;;;;;;;;23.04;50.79;101146.59;2091110;28;1378;-58
2021/09/09 04:42:44;;;;;;;;;;;;;;;23.06;50.83;101147.41;2092797;28;886;-58
2021/09/09 04:43:45;;;;;;;;;;;;;;;23.05;51.18;101138.44;2093044;28;1035;-58
2021/09/09 04:44:45;;;;;;;;;;;;;;;23.06;50.75;101145.59;2093046;28;790;-58
2021/09/09 04:45:45;;;;;;;;;;;;;;;23.09;50.50;101141.88;2093004;28;906;-58
2021/09/09 04:46:45;;;;;;;;;;;;;;;23.07;50.89;101131.16;2093079;28;1345;-59
2021/09/09 04:47:45;;;;;;;;;;;;;;;23.08;50.47;101134.72;2092992;28;866;-58
2021/09/09 04:48:45;;;;;;;;;;;;;;;23.09;51.37;101128.38;2092959;28;1347;-58
2021/09/09 04:49:46;;;;;;;;;;;;;;;23.07;50.96;101131.16;2092877;28;1969;-58
2021/09/09 04:50:46;;;;;;;;;;;;;;;23.11;51.50;101134.59;2092822;28;826;-58
2021/09/09 04:51:46;;;;;;;;;;;;;;;23.09;51.22;101136.47;2092989;28;1306;-58
2021/09/09 04:52:46;;;;;;;;;;;;;;;23.10;51.42;101132.84;2092983;28;977;-58
2021/09/09 04:53:46;;;;;;;;;;;;;;;23.09;51.18;101126.56;2092731;28;1114;-58
2021/09/09 04:54:46;;;;;;;;;;;;;;;23.10;51.26;101135.53;2092926;28;1012;-59
2021/09/09 04:55:46;;;;;;;;;;;;;;;23.11;51.10;101137.31;2092817;28;1016;-58
2021/09/09 04:56:47;;;;;;;;;;;;;;;23.10;51.01;101135.53;2092717;28;981;-59
2021/09/09 04:57:47;;;;;;;;;;;;;;;23.11;50.81;101129.19;2092939;28;814;-58
2021/09/09 04:58:47;;;;;;;;;;;;;;;23.12;50.47;101136.38;2092904;28;988;-59
2021/09/09 04:59:47;;;;;;;;;;;;;;;23.09;50.80;101129.28;2092853;28;773;-59
2021/09/09 05:00:48;;;;;;;;;;;;;;;23.13;51.36;101126.44;2092956;28;811;-58
2021/09/09 05:01:48;;;;;;;;;;;;;;;23.12;50.95;101130.97;2092842;28;829;-59
2021/09/09 05:02:48;;;;;;;;;;;;;;;23.13;50.78;101123.75;2092890;28;1309;-59
2021/09/09 05:03:48;;;;;;;;;;;;;;;23.13;50.59;101123.75;2092860;28;850;-59
2021/09/09 05:04:48;;;;;;;;;;;;;;;23.13;50.74;101130.03;2092878;28;847;-59
2021/09/09 05:05:48;;;;;;;;;;;;;;;23.13;51.13;101121.91;2092842;28;980;-59
2021/09/09 05:06:48;;;;;;;;;;;;;;;23.14;50.60;101123.69;2092787;28;996;-59
2021/09/09 05:07:49;;;;;;;;;;;;;;;23.14;51.28;101117.41;2092728;28;807;-58
2021/09/09 05:08:49;;;;;;;;;;;;;;;23.13;50.94;101111.09;2092700;28;1145;-58
2021/09/09 05:09:49;;;;;;;;;;;;;;;23.15;50.63;101109.22;2092774;28;1973;-58
2021/09/09 05:10:49;;;;;;;;;;;;;;;23.15;50.45;101114.63;2092831;28;843;-59
2021/09/09 05:11:49;;;;;;;;;;;;;;;23.15;50.67;101109.22;2092737;28;1056;-58
2021/09/09 05:12:50;;;;;;;;;;;;;;;23.16;50.82;101116.38;2092743;28;814;-59
2021/09/09 05:13:50;;;;;;;;;;;;;;;23.14;51.20;101112.88;2092790;28;846;-59
2021/09/09 05:14:50;;;;;;;;;;;;;;;23.16;51.14;101107.41;2092829;28;822;-58
2021/09/09 05:15:50;;;;;;;;;;;;;;;23.15;50.58;101106.53;2092511;28;1293;-59
2021/09/09 05:16:50;;;;;;;;;;;;;;;23.17;50.47;101115.44;2092162;28;2359;-58